sensor_id;sensor_type;location;lat;lon;timestamp;P1;durP1;ratioP1;P2;durP2;ratioP2
21420;SDS011;10871;50.144;8.428;2023-03-14T00:00:06;3.80;;;1.30;;
21420;SDS011;10871;50.144;8.428;2023-03-14T00:02:34;2.78;;;1.17;;
21420;SDS011;10871;50.144;8.428;2023-03-14T00:05:01;2.63;;;1.30;;
21420;SDS011;10871;50.144;8.428;2023-03-14T00:07:33;3.55;;;1.20;;
21420;SDS011;10871;50.144;8.428;2023-03-14T00:10:11;4.10;;;1.35;;
21420;SDS011;10871;50.144;8.428;2023-03-14T00:12:41;2.75;;;1.30;;
21420;SDS011;10871;50.144;8.428;2023-03-14T00:15:07;2.53;;;1.20;;
21420;SDS011;10871;50.144;8.428;2023-03-14T00:17:35;6.72;;;1.63;;
21420;SDS011;10871;50.144;8.428;2023-03-14T00:20:02;2.97;;;1.40;;
21420;SDS011;10871;50.144;8.428;2023-03-14T00:22:35;3.55;;;1.50;;
21420;SDS011;10871;50.144;8.428;2023-03-14T00:25:02;5.10;;;1.30;;
21420;SDS011;10871;50.144;8.428;2023-03-14T00:27:29;2.47;;;1.52;;
21420;SDS011;10871;50.144;8.428;2023-03-14T00:29:56;3.78;;;1.40;;
21420;SDS011;10871;50.144;8.428;2023-03-14T00:32:22;4.25;;;1.60;;
21420;SDS011;10871;50.144;8.428;2023-03-14T00:34:50;4.43;;;1.60;;
21420;SDS011;10871;50.144;8.428;2023-03-14T00:37:16;5.22;;;1.60;;
21420;SDS011;10871;50.144;8.428;2023-03-14T00:39:42;4.50;;;1.90;;
21420;SDS011;10871;50.144;8.428;2023-03-14T00:42:09;4.72;;;1.60;;
21420;SDS011;10871;50.144;8.428;2023-03-14T00:44:37;4.05;;;1.70;;
21420;SDS011;10871;50.144;8.428;2023-03-14T00:47:05;3.88;;;1.50;;
21420;SDS011;10871;50.144;8.428;2023-03-14T00:49:32;6.43;;;1.50;;
21420;SDS011;10871;50.144;8.428;2023-03-14T00:51:59;4.82;;;1.63;;
21420;SDS011;10871;50.144;8.428;2023-03-14T00:54:25;4.72;;;1.38;;
21420;SDS011;10871;50.144;8.428;2023-03-14T00:56:52;4.20;;;1.73;;
21420;SDS011;10871;50.144;8.428;2023-03-14T00:59:18;7.55;;;1.85;;
21420;SDS011;10871;50.144;8.428;2023-03-14T01:01:45;3.35;;;1.40;;
21420;SDS011;10871;50.144;8.428;2023-03-14T01:04:12;7.50;;;1.90;;
21420;SDS011;10871;50.144;8.428;2023-03-14T01:06:38;4.38;;;1.35;;
21420;SDS011;10871;50.144;8.428;2023-03-14T01:09:05;7.90;;;1.83;;
21420;SDS011;10871;50.144;8.428;2023-03-14T01:11:33;8.23;;;2.00;;
21420;SDS011;10871;50.144;8.428;2023-03-14T01:14:00;9.45;;;2.00;;
21420;SDS011;10871;50.144;8.428;2023-03-14T01:16:29;6.53;;;1.63;;
21420;SDS011;10871;50.144;8.428;2023-03-14T01:18:59;6.50;;;1.58;;
21420;SDS011;10871;50.144;8.428;2023-03-14T01:21:27;7.53;;;1.70;;
21420;SDS011;10871;50.144;8.428;2023-03-14T01:23:56;8.45;;;1.75;;
21420;SDS011;10871;50.144;8.428;2023-03-14T01:26:25;4.35;;;1.67;;
21420;SDS011;10871;50.144;8.428;2023-03-14T01:28:52;3.97;;;1.73;;
21420;SDS011;10871;50.144;8.428;2023-03-14T01:31:20;9.05;;;2.10;;
21420;SDS011;10871;50.144;8.428;2023-03-14T01:33:47;8.45;;;1.85;;
21420;SDS011;10871;50.144;8.428;2023-03-14T01:36:13;4.50;;;1.85;;
21420;SDS011;10871;50.144;8.428;2023-03-14T01:38:41;4.85;;;1.52;;
21420;SDS011;10871;50.144;8.428;2023-03-14T01:41:15;9.80;;;1.67;;
21420;SDS011;10871;50.144;8.428;2023-03-14T01:43:43;7.18;;;2.00;;
21420;SDS011;10871;50.144;8.428;2023-03-14T01:51:24;4.90;;;1.63;;
21420;SDS011;10871;50.144;8.428;2023-03-14T01:53:52;6.72;;;1.65;;
21420;SDS011;10871;50.144;8.428;2023-03-14T01:56:21;8.13;;;1.88;;
21420;SDS011;10871;50.144;8.428;2023-03-14T01:58:48;5.60;;;1.80;;
21420;SDS011;10871;50.144;8.428;2023-03-14T02:01:18;8.05;;;1.98;;
21420;SDS011;10871;50.144;8.428;2023-03-14T02:03:53;10.80;;;1.88;;
21420;SDS011;10871;50.144;8.428;2023-03-14T02:06:23;4.53;;;1.55;;
21420;SDS011;10871;50.144;8.428;2023-03-14T02:08:51;5.03;;;2.00;;
21420;SDS011;10871;50.144;8.428;2023-03-14T02:11:26;6.43;;;2.13;;
21420;SDS011;10871;50.144;8.428;2023-03-14T02:14:01;7.40;;;1.88;;
21420;SDS011;10871;50.144;8.428;2023-03-14T02:22:19;8.02;;;1.88;;
21420;SDS011;10871;50.144;8.428;2023-03-14T02:25:15;8.52;;;2.15;;
21420;SDS011;10871;50.144;8.428;2023-03-14T02:27:44;4.97;;;1.75;;
21420;SDS011;10871;50.144;8.428;2023-03-14T02:30:19;9.07;;;1.73;;
21420;SDS011;10871;50.144;8.428;2023-03-14T02:32:49;7.60;;;2.63;;
21420;SDS011;10871;50.144;8.428;2023-03-14T02:35:19;7.07;;;1.90;;
21420;SDS011;10871;50.144;8.428;2023-03-14T02:37:55;5.90;;;1.73;;
21420;SDS011;10871;50.144;8.428;2023-03-14T02:40:29;8.15;;;1.70;;
21420;SDS011;10871;50.144;8.428;2023-03-14T02:42:57;5.55;;;1.75;;
21420;SDS011;10871;50.144;8.428;2023-03-14T02:47:56;5.93;;;1.88;;
21420;SDS011;10871;50.144;8.428;2023-03-14T02:50:25;8.57;;;2.30;;
21420;SDS011;10871;50.144;8.428;2023-03-14T02:52:53;7.40;;;1.80;;
21420;SDS011;10871;50.144;8.428;2023-03-14T02:55:21;6.88;;;1.98;;
21420;SDS011;10871;50.144;8.428;2023-03-14T02:57:48;5.00;;;1.90;;
21420;SDS011;10871;50.144;8.428;2023-03-14T03:00:18;6.40;;;2.15;;
21420;SDS011;10871;50.144;8.428;2023-03-14T03:02:45;12.30;;;1.90;;
21420;SDS011;10871;50.144;8.428;2023-03-14T03:05:13;9.07;;;2.22;;
21420;SDS011;10871;50.144;8.428;2023-03-14T03:07:40;7.28;;;2.70;;
21420;SDS011;10871;50.144;8.428;2023-03-14T03:10:06;10.45;;;2.17;;
21420;SDS011;10871;50.144;8.428;2023-03-14T03:12:34;5.93;;;1.90;;
21420;SDS011;10871;50.144;8.428;2023-03-14T03:15:00;5.97;;;2.05;;
21420;SDS011;10871;50.144;8.428;2023-03-14T03:17:28;7.82;;;2.08;;
21420;SDS011;10871;50.144;8.428;2023-03-14T03:19:55;5.57;;;1.88;;
21420;SDS011;10871;50.144;8.428;2023-03-14T03:22:22;7.00;;;2.22;;
21420;SDS011;10871;50.144;8.428;2023-03-14T03:24:48;6.88;;;2.20;;
21420;SDS011;10871;50.144;8.428;2023-03-14T03:27:15;11.52;;;2.42;;
21420;SDS011;10871;50.144;8.428;2023-03-14T03:29:42;7.78;;;2.30;;
21420;SDS011;10871;50.144;8.428;2023-03-14T03:32:09;5.20;;;2.20;;
21420;SDS011;10871;50.144;8.428;2023-03-14T03:34:35;9.30;;;2.35;;
21420;SDS011;10871;50.144;8.428;2023-03-14T03:37:02;7.28;;;2.22;;
21420;SDS011;10871;50.144;8.428;2023-03-14T03:39:33;6.60;;;1.92;;
21420;SDS011;10871;50.144;8.428;2023-03-14T03:42:00;4.25;;;2.00;;
21420;SDS011;10871;50.144;8.428;2023-03-14T03:44:27;6.15;;;2.03;;
21420;SDS011;10871;50.144;8.428;2023-03-14T03:46:54;5.53;;;2.03;;
21420;SDS011;10871;50.144;8.428;2023-03-14T03:49:20;8.85;;;2.10;;
21420;SDS011;10871;50.144;8.428;2023-03-14T03:51:48;9.32;;;1.90;;
21420;SDS011;10871;50.144;8.428;2023-03-14T03:54:15;6.10;;;1.80;;
21420;SDS011;10871;50.144;8.428;2023-03-14T03:56:42;7.03;;;2.05;;
21420;SDS011;10871;50.144;8.428;2023-03-14T03:59:08;5.88;;;1.70;;
21420;SDS011;10871;50.144;8.428;2023-03-14T04:01:35;6.70;;;2.08;;
21420;SDS011;10871;50.144;8.428;2023-03-14T04:04:02;10.50;;;1.85;;
21420;SDS011;10871;50.144;8.428;2023-03-14T04:06:28;5.75;;;1.90;;
21420;SDS011;10871;50.144;8.428;2023-03-14T04:08:58;7.43;;;2.03;;
21420;SDS011;10871;50.144;8.428;2023-03-14T04:14:31;5.75;;;1.73;;
21420;SDS011;10871;50.144;8.428;2023-03-14T04:17:10;4.95;;;1.88;;
21420;SDS011;10871;50.144;8.428;2023-03-14T04:19:37;6.55;;;1.90;;
21420;SDS011;10871;50.144;8.428;2023-03-14T04:22:04;8.20;;;2.10;;
21420;SDS011;10871;50.144;8.428;2023-03-14T04:24:42;7.35;;;2.05;;
21420;SDS011;10871;50.144;8.428;2023-03-14T04:27:08;8.60;;;1.90;;
21420;SDS011;10871;50.144;8.428;2023-03-14T04:29:35;6.65;;;2.00;;
21420;SDS011;10871;50.144;8.428;2023-03-14T04:32:02;6.80;;;2.00;;
21420;SDS011;10871;50.144;8.428;2023-03-14T04:34:29;6.80;;;1.95;;
21420;SDS011;10871;50.144;8.428;2023-03-14T04:36:56;8.98;;;1.73;;
21420;SDS011;10871;50.144;8.428;2023-03-14T04:39:29;9.13;;;2.03;;
21420;SDS011;10871;50.144;8.428;2023-03-14T04:42:05;5.38;;;1.77;;
21420;SDS011;10871;50.144;8.428;2023-03-14T04:44:32;7.13;;;2.00;;
21420;SDS011;10871;50.144;8.428;2023-03-14T04:47:00;4.47;;;1.60;;
21420;SDS011;10871;50.144;8.428;2023-03-14T04:49:26;6.88;;;1.58;;
21420;SDS011;10871;50.144;8.428;2023-03-14T04:51:53;8.10;;;1.80;;
21420;SDS011;10871;50.144;8.428;2023-03-14T04:54:22;4.32;;;1.60;;
21420;SDS011;10871;50.144;8.428;2023-03-14T04:56:54;5.07;;;1.50;;
21420;SDS011;10871;50.144;8.428;2023-03-14T04:59:21;5.45;;;1.27;;
21420;SDS011;10871;50.144;8.428;2023-03-14T05:01:51;7.85;;;1.67;;
21420;SDS011;10871;50.144;8.428;2023-03-14T05:04:38;4.75;;;1.52;;
21420;SDS011;10871;50.144;8.428;2023-03-14T05:07:37;4.70;;;1.33;;
21420;SDS011;10871;50.144;8.428;2023-03-14T05:10:24;4.95;;;1.30;;
21420;SDS011;10871;50.144;8.428;2023-03-14T05:13:16;6.28;;;1.80;;
21420;SDS011;10871;50.144;8.428;2023-03-14T05:16:08;6.30;;;1.70;;
21420;SDS011;10871;50.144;8.428;2023-03-14T05:18:50;4.85;;;1.13;;
21420;SDS011;10871;50.144;8.428;2023-03-14T05:21:34;6.93;;;1.83;;
21420;SDS011;10871;50.144;8.428;2023-03-14T05:24:11;6.03;;;1.45;;
21420;SDS011;10871;50.144;8.428;2023-03-14T05:26:53;5.72;;;1.48;;
21420;SDS011;10871;50.144;8.428;2023-03-14T05:29:46;6.72;;;1.50;;
21420;SDS011;10871;50.144;8.428;2023-03-14T05:32:42;3.50;;;1.30;;
21420;SDS011;10871;50.144;8.428;2023-03-14T05:35:18;7.07;;;1.08;;
21420;SDS011;10871;50.144;8.428;2023-03-14T05:37:45;2.70;;;1.08;;
21420;SDS011;10871;50.144;8.428;2023-03-14T05:40:33;4.30;;;1.25;;
21420;SDS011;10871;50.144;8.428;2023-03-14T05:43:20;4.32;;;1.20;;
21420;SDS011;10871;50.144;8.428;2023-03-14T05:45:53;6.65;;;1.48;;
21420;SDS011;10871;50.144;8.428;2023-03-14T05:48:39;4.95;;;1.40;;
21420;SDS011;10871;50.144;8.428;2023-03-14T05:51:20;9.27;;;1.50;;
21420;SDS011;10871;50.144;8.428;2023-03-14T05:54:01;4.65;;;1.10;;
21420;SDS011;10871;50.144;8.428;2023-03-14T05:56:47;4.88;;;1.17;;
21420;SDS011;10871;50.144;8.428;2023-03-14T05:59:33;4.03;;;1.45;;
21420;SDS011;10871;50.144;8.428;2023-03-14T06:02:00;4.95;;;1.10;;
21420;SDS011;10871;50.144;8.428;2023-03-14T06:04:33;2.70;;;1.23;;
21420;SDS011;10871;50.144;8.428;2023-03-14T06:07:00;3.60;;;1.30;;
21420;SDS011;10871;50.144;8.428;2023-03-14T06:09:30;6.95;;;1.50;;
21420;SDS011;10871;50.144;8.428;2023-03-14T06:11:59;5.07;;;1.20;;
21420;SDS011;10871;50.144;8.428;2023-03-14T06:14:30;4.25;;;1.20;;
21420;SDS011;10871;50.144;8.428;2023-03-14T06:16:59;4.32;;;1.08;;
21420;SDS011;10871;50.144;8.428;2023-03-14T06:19:30;4.45;;;1.20;;
21420;SDS011;10871;50.144;8.428;2023-03-14T06:21:57;2.97;;;1.25;;
21420;SDS011;10871;50.144;8.428;2023-03-14T06:24:24;4.75;;;1.40;;
21420;SDS011;10871;50.144;8.428;2023-03-14T06:26:51;3.03;;;1.13;;
21420;SDS011;10871;50.144;8.428;2023-03-14T06:29:18;4.40;;;1.17;;
21420;SDS011;10871;50.144;8.428;2023-03-14T06:31:45;3.67;;;1.10;;
21420;SDS011;10871;50.144;8.428;2023-03-14T06:34:15;3.63;;;1.20;;
21420;SDS011;10871;50.144;8.428;2023-03-14T06:36:42;3.35;;;1.33;;
21420;SDS011;10871;50.144;8.428;2023-03-14T06:39:10;3.42;;;1.08;;
21420;SDS011;10871;50.144;8.428;2023-03-14T06:41:41;5.70;;;1.38;;
21420;SDS011;10871;50.144;8.428;2023-03-14T06:44:09;2.88;;;1.13;;
21420;SDS011;10871;50.144;8.428;2023-03-14T06:46:36;5.22;;;1.30;;
21420;SDS011;10871;50.144;8.428;2023-03-14T06:49:03;3.63;;;1.38;;
21420;SDS011;10871;50.144;8.428;2023-03-14T06:51:31;3.13;;;0.95;;
21420;SDS011;10871;50.144;8.428;2023-03-14T06:54:01;6.05;;;1.15;;
21420;SDS011;10871;50.144;8.428;2023-03-14T06:56:28;4.57;;;1.40;;
21420;SDS011;10871;50.144;8.428;2023-03-14T06:58:56;5.75;;;1.42;;
21420;SDS011;10871;50.144;8.428;2023-03-14T07:01:25;4.40;;;1.20;;
21420;SDS011;10871;50.144;8.428;2023-03-14T07:03:56;3.03;;;1.50;;
21420;SDS011;10871;50.144;8.428;2023-03-14T07:06:23;4.75;;;1.65;;
21420;SDS011;10871;50.144;8.428;2023-03-14T07:08:50;5.43;;;1.88;;
21420;SDS011;10871;50.144;8.428;2023-03-14T07:11:17;4.93;;;1.80;;
21420;SDS011;10871;50.144;8.428;2023-03-14T07:13:44;4.15;;;1.45;;
21420;SDS011;10871;50.144;8.428;2023-03-14T07:16:11;6.40;;;1.63;;
21420;SDS011;10871;50.144;8.428;2023-03-14T07:18:39;4.22;;;1.60;;
21420;SDS011;10871;50.144;8.428;2023-03-14T07:21:06;3.67;;;1.50;;
21420;SDS011;10871;50.144;8.428;2023-03-14T07:23:33;6.18;;;1.70;;
21420;SDS011;10871;50.144;8.428;2023-03-14T07:26:02;3.08;;;1.77;;
21420;SDS011;10871;50.144;8.428;2023-03-14T07:28:32;3.45;;;1.80;;
21420;SDS011;10871;50.144;8.428;2023-03-14T07:31:10;4.35;;;1.70;;
21420;SDS011;10871;50.144;8.428;2023-03-14T07:33:38;5.85;;;1.63;;
21420;SDS011;10871;50.144;8.428;2023-03-14T07:36:06;3.90;;;1.50;;
21420;SDS011;10871;50.144;8.428;2023-03-14T07:38:33;3.00;;;1.30;;
21420;SDS011;10871;50.144;8.428;2023-03-14T07:41:24;2.88;;;1.50;;
21420;SDS011;10871;50.144;8.428;2023-03-14T07:44:14;2.70;;;1.35;;
21420;SDS011;10871;50.144;8.428;2023-03-14T07:46:40;2.60;;;1.50;;
21420;SDS011;10871;50.144;8.428;2023-03-14T07:49:07;4.28;;;1.50;;
21420;SDS011;10871;50.144;8.428;2023-03-14T07:51:34;6.85;;;1.75;;
21420;SDS011;10871;50.144;8.428;2023-03-14T07:54:00;4.18;;;1.50;;
21420;SDS011;10871;50.144;8.428;2023-03-14T07:56:27;6.63;;;1.63;;
21420;SDS011;10871;50.144;8.428;2023-03-14T07:58:53;5.05;;;1.63;;
21420;SDS011;10871;50.144;8.428;2023-03-14T08:01:20;4.82;;;1.65;;
21420;SDS011;10871;50.144;8.428;2023-03-14T08:03:46;4.13;;;1.92;;
21420;SDS011;10871;50.144;8.428;2023-03-14T08:06:13;2.97;;;1.70;;
21420;SDS011;10871;50.144;8.428;2023-03-14T08:08:40;2.60;;;1.50;;
21420;SDS011;10871;50.144;8.428;2023-03-14T08:11:07;5.03;;;1.83;;
21420;SDS011;10871;50.144;8.428;2023-03-14T08:13:36;6.40;;;1.90;;
21420;SDS011;10871;50.144;8.428;2023-03-14T08:16:03;3.38;;;1.67;;
21420;SDS011;10871;50.144;8.428;2023-03-14T08:18:30;6.05;;;2.15;;
21420;SDS011;10871;50.144;8.428;2023-03-14T08:20:57;6.18;;;2.10;;
21420;SDS011;10871;50.144;8.428;2023-03-14T08:23:24;4.20;;;1.80;;
21420;SDS011;10871;50.144;8.428;2023-03-14T08:25:51;3.67;;;2.25;;
21420;SDS011;10871;50.144;8.428;2023-03-14T08:28:18;4.03;;;2.05;;
21420;SDS011;10871;50.144;8.428;2023-03-14T08:30:45;4.95;;;2.10;;
21420;SDS011;10871;50.144;8.428;2023-03-14T08:33:13;3.92;;;2.30;;
21420;SDS011;10871;50.144;8.428;2023-03-14T08:35:39;3.47;;;2.30;;
21420;SDS011;10871;50.144;8.428;2023-03-14T08:38:06;3.95;;;2.00;;
21420;SDS011;10871;50.144;8.428;2023-03-14T08:40:33;5.90;;;2.60;;
21420;SDS011;10871;50.144;8.428;2023-03-14T08:43:00;6.40;;;2.20;;
21420;SDS011;10871;50.144;8.428;2023-03-14T08:45:27;3.65;;;2.42;;
21420;SDS011;10871;50.144;8.428;2023-03-14T08:47:53;3.80;;;2.55;;
21420;SDS011;10871;50.144;8.428;2023-03-14T08:50:20;5.55;;;2.63;;
21420;SDS011;10871;50.144;8.428;2023-03-14T08:52:46;3.53;;;2.05;;
21420;SDS011;10871;50.144;8.428;2023-03-14T08:55:13;5.07;;;2.50;;
21420;SDS011;10871;50.144;8.428;2023-03-14T08:57:40;2.45;;;2.20;;
21420;SDS011;10871;50.144;8.428;2023-03-14T09:00:06;6.55;;;2.92;;
21420;SDS011;10871;50.144;8.428;2023-03-14T09:02:42;3.00;;;2.45;;
21420;SDS011;10871;50.144;8.428;2023-03-14T09:05:10;2.67;;;2.42;;
21420;SDS011;10871;50.144;8.428;2023-03-14T09:07:37;5.40;;;2.83;;
21420;SDS011;10871;50.144;8.428;2023-03-14T09:10:04;4.63;;;2.85;;
21420;SDS011;10871;50.144;8.428;2023-03-14T09:12:31;4.82;;;2.88;;
21420;SDS011;10871;50.144;8.428;2023-03-14T09:14:59;3.85;;;2.90;;
21420;SDS011;10871;50.144;8.428;2023-03-14T09:17:26;6.18;;;2.70;;
21420;SDS011;10871;50.144;8.428;2023-03-14T09:19:52;3.33;;;2.58;;
21420;SDS011;10871;50.144;8.428;2023-03-14T09:22:20;5.20;;;2.80;;
21420;SDS011;10871;50.144;8.428;2023-03-14T09:24:47;5.40;;;2.70;;
21420;SDS011;10871;50.144;8.428;2023-03-14T09:27:14;3.45;;;2.42;;
21420;SDS011;10871;50.144;8.428;2023-03-14T09:29:40;5.53;;;2.55;;
21420;SDS011;10871;50.144;8.428;2023-03-14T09:32:07;3.03;;;2.50;;
21420;SDS011;10871;50.144;8.428;2023-03-14T09:34:35;4.85;;;3.00;;
21420;SDS011;10871;50.144;8.428;2023-03-14T09:37:02;3.72;;;2.80;;
21420;SDS011;10871;50.144;8.428;2023-03-14T09:39:28;3.53;;;2.65;;
21420;SDS011;10871;50.144;8.428;2023-03-14T09:41:55;3.95;;;3.28;;
21420;SDS011;10871;50.144;8.428;2023-03-14T09:44:25;3.58;;;2.67;;
21420;SDS011;10871;50.144;8.428;2023-03-14T09:46:53;4.63;;;2.85;;
21420;SDS011;10871;50.144;8.428;2023-03-14T09:49:25;3.80;;;2.70;;
21420;SDS011;10871;50.144;8.428;2023-03-14T09:51:54;6.40;;;3.23;;
21420;SDS011;10871;50.144;8.428;2023-03-14T09:54:29;4.80;;;2.88;;
21420;SDS011;10871;50.144;8.428;2023-03-14T09:56:56;4.82;;;2.58;;
21420;SDS011;10871;50.144;8.428;2023-03-14T09:59:22;4.13;;;2.70;;
21420;SDS011;10871;50.144;8.428;2023-03-14T10:01:50;3.05;;;2.50;;
21420;SDS011;10871;50.144;8.428;2023-03-14T10:04:18;2.97;;;2.63;;
21420;SDS011;10871;50.144;8.428;2023-03-14T10:06:47;4.80;;;2.63;;
21420;SDS011;10871;50.144;8.428;2023-03-14T10:09:19;4.18;;;2.70;;
21420;SDS011;10871;50.144;8.428;2023-03-14T10:11:52;3.55;;;2.75;;
21420;SDS011;10871;50.144;8.428;2023-03-14T10:14:44;3.10;;;2.83;;
21420;SDS011;10871;50.144;8.428;2023-03-14T10:17:11;4.07;;;2.65;;
21420;SDS011;10871;50.144;8.428;2023-03-14T10:19:50;5.93;;;3.10;;
21420;SDS011;10871;50.144;8.428;2023-03-14T10:22:17;3.40;;;3.10;;
21420;SDS011;10871;50.144;8.428;2023-03-14T10:24:49;5.82;;;3.28;;
21420;SDS011;10871;50.144;8.428;2023-03-14T10:27:21;4.95;;;3.30;;
21420;SDS011;10871;50.144;8.428;2023-03-14T10:29:55;3.38;;;2.88;;
21420;SDS011;10871;50.144;8.428;2023-03-14T10:32:29;3.22;;;2.90;;
21420;SDS011;10871;50.144;8.428;2023-03-14T10:37:34;4.22;;;3.30;;
21420;SDS011;10871;50.144;8.428;2023-03-14T10:40:01;3.15;;;2.83;;
21420;SDS011;10871;50.144;8.428;2023-03-14T10:42:33;3.30;;;2.45;;
21420;SDS011;10871;50.144;8.428;2023-03-14T10:45:02;3.15;;;2.80;;
21420;SDS011;10871;50.144;8.428;2023-03-14T10:47:30;3.15;;;2.83;;
21420;SDS011;10871;50.144;8.428;2023-03-14T10:49:58;5.07;;;3.10;;
21420;SDS011;10871;50.144;8.428;2023-03-14T10:52:47;3.15;;;2.85;;
21420;SDS011;10871;50.144;8.428;2023-03-14T10:55:28;4.45;;;2.60;;
21420;SDS011;10871;50.144;8.428;2023-03-14T10:58:05;4.38;;;2.60;;
21420;SDS011;10871;50.144;8.428;2023-03-14T11:00:31;3.10;;;2.85;;
21420;SDS011;10871;50.144;8.428;2023-03-14T11:03:10;3.10;;;2.55;;
21420;SDS011;10871;50.144;8.428;2023-03-14T11:05:56;3.95;;;2.72;;
21420;SDS011;10871;50.144;8.428;2023-03-14T11:08:24;2.85;;;2.50;;
21420;SDS011;10871;50.144;8.428;2023-03-14T11:10:54;3.15;;;2.78;;
21420;SDS011;10871;50.144;8.428;2023-03-14T11:13:33;4.00;;;2.35;;
21420;SDS011;10871;50.144;8.428;2023-03-14T11:18:51;4.43;;;2.60;;
21420;SDS011;10871;50.144;8.428;2023-03-14T11:23:49;2.20;;;2.00;;
21420;SDS011;10871;50.144;8.428;2023-03-14T11:26:26;1.90;;;1.80;;
21420;SDS011;10871;50.144;8.428;2023-03-14T11:28:58;3.83;;;1.95;;
21420;SDS011;10871;50.144;8.428;2023-03-14T11:34:01;2.60;;;2.10;;
21420;SDS011;10871;50.144;8.428;2023-03-14T11:39:15;3.10;;;1.80;;
21420;SDS011;10871;50.144;8.428;2023-03-14T11:41:43;2.28;;;1.80;;
21420;SDS011;10871;50.144;8.428;2023-03-14T11:44:14;1.50;;;1.40;;
21420;SDS011;10871;50.144;8.428;2023-03-14T11:49:40;2.95;;;1.40;;
21420;SDS011;10871;50.144;8.428;2023-03-14T11:52:10;1.50;;;1.40;;
21420;SDS011;10871;50.144;8.428;2023-03-14T11:54:42;2.80;;;1.40;;
21420;SDS011;10871;50.144;8.428;2023-03-14T11:57:17;2.05;;;0.90;;
21420;SDS011;10871;50.144;8.428;2023-03-14T12:02:16;0.50;;;0.50;;
21420;SDS011;10871;50.144;8.428;2023-03-14T12:07:21;0.90;;;0.40;;
21420;SDS011;10871;50.144;8.428;2023-03-14T12:09:48;1.02;;;0.50;;
21420;SDS011;10871;50.144;8.428;2023-03-14T12:12:20;1.38;;;0.50;;
21420;SDS011;10871;50.144;8.428;2023-03-14T12:14:58;0.77;;;0.60;;
21420;SDS011;10871;50.144;8.428;2023-03-14T12:17:26;0.80;;;0.43;;
21420;SDS011;10871;50.144;8.428;2023-03-14T12:22:43;0.50;;;0.50;;
21420;SDS011;10871;50.144;8.428;2023-03-14T12:38:16;1.17;;;0.60;;
21420;SDS011;10871;50.144;8.428;2023-03-14T12:40:53;0.80;;;0.63;;
21420;SDS011;10871;50.144;8.428;2023-03-14T12:43:28;0.63;;;0.63;;
21420;SDS011;10871;50.144;8.428;2023-03-14T12:48:40;0.77;;;0.77;;
21420;SDS011;10871;50.144;8.428;2023-03-14T12:51:14;0.70;;;0.70;;
21420;SDS011;10871;50.144;8.428;2023-03-14T12:56:24;0.82;;;0.82;;
21420;SDS011;10871;50.144;8.428;2023-03-14T12:58:55;1.27;;;0.90;;
21420;SDS011;10871;50.144;8.428;2023-03-14T13:01:24;1.50;;;1.20;;
21420;SDS011;10871;50.144;8.428;2023-03-14T13:03:57;2.67;;;1.20;;
21420;SDS011;10871;50.144;8.428;2023-03-14T13:09:48;0.95;;;0.95;;
21420;SDS011;10871;50.144;8.428;2023-03-14T13:12:09;1.05;;;0.98;;
21420;SDS011;10871;50.144;8.428;2023-03-14T13:14:40;1.80;;;1.00;;
21420;SDS011;10871;50.144;8.428;2023-03-14T13:17:10;0.80;;;0.80;;
21420;SDS011;10871;50.144;8.428;2023-03-14T13:20:00;1.08;;;0.93;;
21420;SDS011;10871;50.144;8.428;2023-03-14T13:22:27;1.05;;;0.80;;
21420;SDS011;10871;50.144;8.428;2023-03-14T13:25:09;1.38;;;0.70;;
21420;SDS011;10871;50.144;8.428;2023-03-14T13:27:36;0.80;;;0.80;;
21420;SDS011;10871;50.144;8.428;2023-03-14T13:30:18;1.20;;;0.77;;
21420;SDS011;10871;50.144;8.428;2023-03-14T13:32:45;0.80;;;0.80;;
21420;SDS011;10871;50.144;8.428;2023-03-14T13:35:18;0.60;;;0.60;;
21420;SDS011;10871;50.144;8.428;2023-03-14T13:37:45;0.50;;;0.50;;
21420;SDS011;10871;50.144;8.428;2023-03-14T13:40:18;0.70;;;0.68;;
21420;SDS011;10871;50.144;8.428;2023-03-14T13:42:45;2.03;;;0.68;;
21420;SDS011;10871;50.144;8.428;2023-03-14T13:45:12;0.60;;;0.60;;
21420;SDS011;10871;50.144;8.428;2023-03-14T13:47:41;0.60;;;0.60;;
21420;SDS011;10871;50.144;8.428;2023-03-14T13:50:17;0.88;;;0.60;;
21420;SDS011;10871;50.144;8.428;2023-03-14T13:52:44;0.90;;;0.60;;
21420;SDS011;10871;50.144;8.428;2023-03-14T13:55:16;0.57;;;0.57;;
21420;SDS011;10871;50.144;8.428;2023-03-14T13:57:47;0.60;;;0.60;;
21420;SDS011;10871;50.144;8.428;2023-03-14T14:00:18;0.50;;;0.50;;
21420;SDS011;10871;50.144;8.428;2023-03-14T14:02:46;0.57;;;0.52;;
21420;SDS011;10871;50.144;8.428;2023-03-14T14:05:13;0.70;;;0.60;;
21420;SDS011;10871;50.144;8.428;2023-03-14T14:07:40;0.52;;;0.52;;
21420;SDS011;10871;50.144;8.428;2023-03-14T14:10:10;1.30;;;0.52;;
21420;SDS011;10871;50.144;8.428;2023-03-14T14:15:13;1.02;;;0.60;;
21420;SDS011;10871;50.144;8.428;2023-03-14T14:17:43;0.90;;;0.70;;
21420;SDS011;10871;50.144;8.428;2023-03-14T14:20:21;0.73;;;0.45;;
21420;SDS011;10871;50.144;8.428;2023-03-14T14:22:49;2.10;;;0.50;;
21420;SDS011;10871;50.144;8.428;2023-03-14T14:25:16;0.40;;;0.40;;
21420;SDS011;10871;50.144;8.428;2023-03-14T14:27:43;0.60;;;0.50;;
21420;SDS011;10871;50.144;8.428;2023-03-14T14:32:43;0.50;;;0.50;;
21420;SDS011;10871;50.144;8.428;2023-03-14T14:35:11;1.00;;;0.80;;
21420;SDS011;10871;50.144;8.428;2023-03-14T14:37:47;1.05;;;0.65;;
21420;SDS011;10871;50.144;8.428;2023-03-14T14:40:21;0.70;;;0.70;;
21420;SDS011;10871;50.144;8.428;2023-03-14T14:42:48;0.63;;;0.63;;
21420;SDS011;10871;50.144;8.428;2023-03-14T14:45:22;1.88;;;1.10;;
21420;SDS011;10871;50.144;8.428;2023-03-14T14:48:06;1.10;;;1.00;;
21420;SDS011;10871;50.144;8.428;2023-03-14T14:55:43;2.33;;;1.20;;
21420;SDS011;10871;50.144;8.428;2023-03-14T14:58:56;1.67;;;1.27;;
21420;SDS011;10871;50.144;8.428;2023-03-14T15:03:30;1.40;;;1.30;;
21420;SDS011;10871;50.144;8.428;2023-03-14T15:05:57;1.38;;;1.27;;
21420;SDS011;10871;50.144;8.428;2023-03-14T15:08:24;1.40;;;1.25;;
21420;SDS011;10871;50.144;8.428;2023-03-14T15:10:51;1.17;;;1.00;;
21420;SDS011;10871;50.144;8.428;2023-03-14T15:13:18;1.45;;;1.10;;
21420;SDS011;10871;50.144;8.428;2023-03-14T15:15:45;1.48;;;0.90;;
21420;SDS011;10871;50.144;8.428;2023-03-14T15:18:17;0.95;;;0.70;;
21420;SDS011;10871;50.144;8.428;2023-03-14T15:20:45;0.70;;;0.70;;
21420;SDS011;10871;50.144;8.428;2023-03-14T15:23:12;0.95;;;0.50;;
21420;SDS011;10871;50.144;8.428;2023-03-14T15:25:40;0.70;;;0.70;;
21420;SDS011;10871;50.144;8.428;2023-03-14T15:28:21;5.68;;;0.63;;
21420;SDS011;10871;50.144;8.428;2023-03-14T15:30:49;0.60;;;0.60;;
21420;SDS011;10871;50.144;8.428;2023-03-14T15:33:17;0.73;;;0.73;;
21420;SDS011;10871;50.144;8.428;2023-03-14T15:35:44;1.63;;;0.68;;
21420;SDS011;10871;50.144;8.428;2023-03-14T15:38:11;0.60;;;0.60;;
21420;SDS011;10871;50.144;8.428;2023-03-14T15:40:39;1.23;;;0.60;;
21420;SDS011;10871;50.144;8.428;2023-03-14T15:43:06;0.60;;;0.50;;
21420;SDS011;10871;50.144;8.428;2023-03-14T15:45:33;0.52;;;0.52;;
21420;SDS011;10871;50.144;8.428;2023-03-14T15:48:01;0.60;;;0.60;;
21420;SDS011;10871;50.144;8.428;2023-03-14T15:50:30;1.88;;;0.73;;
21420;SDS011;10871;50.144;8.428;2023-03-14T15:52:56;0.82;;;0.70;;
21420;SDS011;10871;50.144;8.428;2023-03-14T15:55:23;0.70;;;0.70;;
21420;SDS011;10871;50.144;8.428;2023-03-14T15:57:50;2.30;;;0.90;;
21420;SDS011;10871;50.144;8.428;2023-03-14T16:00:17;1.17;;;0.80;;
21420;SDS011;10871;50.144;8.428;2023-03-14T16:02:45;0.80;;;0.80;;
21420;SDS011;10871;50.144;8.428;2023-03-14T16:05:12;0.70;;;0.70;;
21420;SDS011;10871;50.144;8.428;2023-03-14T16:07:39;0.90;;;0.90;;
21420;SDS011;10871;50.144;8.428;2023-03-14T16:10:07;1.50;;;0.77;;
21420;SDS011;10871;50.144;8.428;2023-03-14T16:12:34;0.90;;;0.88;;
21420;SDS011;10871;50.144;8.428;2023-03-14T16:15:01;1.77;;;0.82;;
21420;SDS011;10871;50.144;8.428;2023-03-14T16:17:27;2.17;;;0.85;;
21420;SDS011;10871;50.144;8.428;2023-03-14T16:19:54;0.85;;;0.85;;